createdAt,value
2019-02-22T00:00:03.854Z,9.63
2019-02-22T00:01:03.819Z,9.58
2019-02-22T00:02:03.823Z,9.53
2019-02-22T00:03:03.805Z,9.56
2019-02-22T00:04:03.779Z,9.46
2019-02-22T00:05:03.795Z,9.52
2019-02-22T00:06:12.429Z,9.53
2019-02-22T00:07:03.790Z,9.48
2019-02-22T00:08:03.752Z,9.50
2019-02-22T00:09:03.764Z,9.60
2019-02-22T00:10:03.712Z,9.53
2019-02-22T00:11:03.752Z,9.57
2019-02-22T00:12:03.722Z,9.49
2019-02-22T00:13:03.679Z,9.57
2019-02-22T00:14:03.693Z,9.56
2019-02-22T00:15:03.669Z,9.48
2019-02-22T00:16:03.652Z,9.49
2019-02-22T00:17:03.682Z,9.53
2019-02-22T00:18:03.637Z,9.52
2019-02-22T00:19:03.690Z,9.43
2019-02-22T00:20:03.626Z,9.50
2019-02-22T00:21:03.614Z,9.49
2019-02-22T00:22:03.609Z,9.48
2019-02-22T00:23:11.140Z,9.48
2019-02-22T00:24:03.593Z,9.52
2019-02-22T00:25:03.564Z,9.50
2019-02-22T00:26:03.563Z,9.45
2019-02-22T00:27:03.581Z,9.49
2019-02-22T00:28:03.527Z,9.45
2019-02-22T00:29:03.531Z,9.52
2019-02-22T00:30:03.507Z,9.46
2019-02-22T00:31:11.070Z,9.42
2019-02-22T00:32:03.506Z,9.46
2019-02-22T00:33:11.032Z,9.43
2019-02-22T00:34:03.519Z,9.42
2019-02-22T00:35:03.523Z,9.46
2019-02-22T00:36:03.478Z,9.39
2019-02-22T00:37:03.463Z,9.38
2019-02-22T00:38:03.438Z,9.45
2019-02-22T00:39:03.425Z,9.46
2019-02-22T00:40:03.394Z,9.48
2019-02-22T00:41:03.391Z,9.52
2019-02-22T00:42:03.390Z,9.46
2019-02-22T00:43:03.400Z,9.48
2019-02-22T00:44:03.357Z,9.48
2019-02-22T00:45:03.345Z,9.48
2019-02-22T00:46:03.347Z,9.40
2019-02-22T00:47:03.359Z,9.43
2019-02-22T00:48:03.301Z,9.39
2019-02-22T00:49:03.342Z,9.35
2019-02-22T00:50:03.288Z,9.32
2019-02-22T00:51:03.293Z,9.35
2019-02-22T00:52:03.262Z,9.30
2019-02-22T00:53:03.848Z,9.32
2019-02-22T00:54:03.266Z,9.28
2019-02-22T00:55:03.227Z,9.34
2019-02-22T00:56:03.235Z,9.38
2019-02-22T00:57:10.777Z,9.30
2019-02-22T00:58:03.238Z,9.31
2019-02-22T00:59:03.195Z,9.31
2019-02-22T01:00:03.197Z,9.32
2019-02-22T01:01:03.178Z,9.31
2019-02-22T01:02:03.198Z,9.30
2019-02-22T01:03:10.706Z,9.28
2019-02-22T01:04:03.169Z,9.27
2019-02-22T01:05:10.692Z,9.28
2019-02-22T01:06:03.176Z,9.24
2019-02-22T01:07:10.663Z,9.30
2019-02-22T01:08:03.139Z,9.28
2019-02-22T01:09:03.082Z,9.35
2019-02-22T01:10:03.079Z,9.30
2019-02-22T01:11:03.062Z,9.32
2019-02-22T01:12:03.045Z,9.30
2019-02-22T01:13:03.035Z,9.30
2019-02-22T01:14:03.054Z,9.27
2019-02-22T01:15:03.040Z,9.32
2019-02-22T01:16:03.003Z,9.32
2019-02-22T01:17:03.015Z,9.28
2019-02-22T01:18:03.009Z,9.23
2019-02-22T01:19:02.992Z,9.34
2019-02-22T01:20:10.506Z,9.25
2019-02-22T01:21:02.976Z,9.28
2019-02-22T01:22:10.503Z,9.28
2019-02-22T01:23:02.935Z,9.23
2019-02-22T01:24:10.484Z,9.30
2019-02-22T01:25:02.957Z,9.34
2019-02-22T01:26:02.910Z,9.31
2019-02-22T01:27:02.921Z,9.25
2019-02-22T01:28:02.877Z,9.31
2019-02-22T01:29:02.890Z,9.24
2019-02-22T01:30:02.857Z,9.31
2019-02-22T01:31:02.869Z,9.23
2019-02-22T01:32:02.853Z,9.25
2019-02-22T01:33:02.829Z,9.32
2019-02-22T01:34:02.831Z,9.24
2019-02-22T01:35:02.800Z,9.16
2019-02-22T01:36:02.812Z,9.24
2019-02-22T01:37:02.780Z,9.30
2019-02-22T01:38:02.784Z,9.27
2019-02-22T01:39:02.803Z,9.20
2019-02-22T01:40:02.801Z,9.30
2019-02-22T01:41:02.743Z,9.31
2019-02-22T01:42:02.816Z,9.25
2019-02-22T01:43:02.722Z,9.15
2019-02-22T01:44:02.723Z,9.32
2019-02-22T01:45:02.723Z,9.21
2019-02-22T01:46:02.683Z,9.21
2019-02-22T01:47:02.689Z,9.30
2019-02-22T01:48:02.658Z,9.31
2019-02-22T01:49:02.654Z,9.30
2019-02-22T01:50:02.665Z,9.31
2019-02-22T01:51:02.637Z,9.27
2019-02-22T01:52:02.633Z,9.32
2019-02-22T01:53:02.627Z,9.25
2019-02-22T01:54:02.597Z,9.32
2019-02-22T01:55:02.627Z,9.25
2019-02-22T01:56:02.618Z,9.28
2019-02-22T01:57:02.567Z,9.30
2019-02-22T01:58:02.550Z,9.27
2019-02-22T01:59:02.610Z,9.30
2019-02-22T02:00:02.573Z,9.30
2019-02-22T02:01:02.542Z,9.28
2019-02-22T02:02:02.533Z,9.32
2019-02-22T02:03:02.528Z,9.27
2019-02-22T02:04:02.513Z,9.28
2019-02-22T02:05:02.512Z,9.27
2019-02-22T02:06:02.465Z,9.31
2019-02-22T02:07:02.453Z,9.25
2019-02-22T02:08:02.497Z,9.27
2019-02-22T02:09:02.490Z,9.27
2019-02-22T02:10:02.419Z,9.28
2019-02-22T02:11:02.427Z,9.28
2019-02-22T02:12:02.438Z,9.28
2019-02-22T02:13:02.431Z,9.30
2019-02-22T02:14:02.376Z,9.25
2019-02-22T02:15:02.389Z,9.31
2019-02-22T02:16:02.372Z,9.23
2019-02-22T02:17:02.360Z,9.31
2019-02-22T02:18:02.367Z,9.31
2019-02-22T02:19:02.329Z,9.30
2019-02-22T02:20:02.334Z,9.25
2019-02-22T02:21:02.330Z,9.28
2019-02-22T02:22:02.322Z,9.25
2019-02-22T02:23:02.279Z,9.32
2019-02-22T02:24:02.283Z,9.28
2019-02-22T02:25:02.267Z,9.27
2019-02-22T02:26:02.270Z,9.27
2019-02-22T02:27:02.250Z,9.27
2019-02-22T02:28:02.263Z,9.20
2019-02-22T02:29:02.216Z,9.28
2019-02-22T02:30:02.229Z,9.21
2019-02-22T02:31:02.247Z,9.28
2019-02-22T02:32:02.205Z,9.20
2019-02-22T02:33:02.180Z,9.28
2019-02-22T02:34:02.175Z,9.28
2019-02-22T02:35:02.155Z,9.25
2019-02-22T02:36:02.186Z,9.27
2019-02-22T02:37:02.141Z,9.28
2019-02-22T02:38:02.120Z,9.28
2019-02-22T02:39:02.109Z,9.24
2019-02-22T02:40:02.104Z,9.27
2019-02-22T02:41:09.918Z,9.25
2019-02-22T02:42:03.124Z,9.25
2019-02-22T02:43:02.074Z,9.25
2019-02-22T02:44:02.053Z,9.28
2019-02-22T02:45:02.056Z,9.23
2019-02-22T02:46:02.057Z,9.30
2019-02-22T02:47:02.060Z,9.25
2019-02-22T02:48:02.009Z,9.30
2019-02-22T02:49:02.020Z,9.24
2019-02-22T02:50:02.009Z,9.23
2019-02-22T02:51:01.988Z,9.27
2019-02-22T02:52:02.037Z,9.30
2019-02-22T02:53:01.990Z,9.23
2019-02-22T02:54:01.981Z,9.27
2019-02-22T02:55:01.967Z,9.23
2019-02-22T02:56:01.937Z,9.25
2019-02-22T02:57:01.968Z,9.25
2019-02-22T02:58:01.928Z,9.25
2019-02-22T02:59:01.918Z,9.20
2019-02-22T03:00:01.894Z,9.23
2019-02-22T03:01:01.928Z,9.25
2019-02-22T03:02:01.859Z,9.25
2019-02-22T03:03:01.879Z,9.23
2019-02-22T03:04:01.861Z,9.20
2019-02-22T03:05:01.847Z,9.20
2019-02-22T03:06:01.862Z,9.27
2019-02-22T03:07:01.828Z,9.30
2019-02-22T03:08:01.820Z,9.20
2019-02-22T03:09:01.811Z,9.31
2019-02-22T03:10:01.787Z,9.16
2019-02-22T03:11:01.792Z,9.25
2019-02-22T03:12:01.760Z,9.20
2019-02-22T03:13:01.797Z,9.24
2019-02-22T03:14:01.767Z,9.24
2019-02-22T03:15:01.741Z,9.21
2019-02-22T03:16:01.745Z,9.18
2019-02-22T03:17:01.741Z,9.18
2019-02-22T03:18:01.702Z,9.23
2019-02-22T03:19:01.723Z,9.24
2019-02-22T03:20:01.669Z,9.24
2019-02-22T03:21:01.685Z,9.18
2019-02-22T03:22:01.684Z,9.18
2019-02-22T03:23:01.670Z,9.20
2019-02-22T03:24:01.625Z,9.23
2019-02-22T03:25:01.627Z,9.16
2019-02-22T03:26:01.610Z,9.21
2019-02-22T03:27:01.629Z,9.18
2019-02-22T03:28:01.655Z,9.15
2019-02-22T03:29:01.700Z,9.18
2019-02-22T03:30:01.561Z,9.13
2019-02-22T03:31:01.559Z,9.25
2019-02-22T03:32:01.538Z,9.20
2019-02-22T03:33:01.538Z,9.15
2019-02-22T03:34:01.550Z,9.24
2019-02-22T03:35:01.507Z,9.23
2019-02-22T03:36:01.540Z,9.21
2019-02-22T03:37:01.513Z,9.21
2019-02-22T03:38:01.520Z,9.20
2019-02-22T03:39:01.483Z,9.16
2019-02-22T03:40:01.476Z,9.21
2019-02-22T03:41:01.449Z,9.21
2019-02-22T03:42:01.431Z,9.21
2019-02-22T03:43:01.420Z,9.20
2019-02-22T03:44:01.474Z,9.16
2019-02-22T03:45:01.413Z,9.18
2019-02-22T03:46:01.437Z,9.18
2019-02-22T03:47:01.374Z,9.16
2019-02-22T03:48:01.377Z,9.20
2019-02-22T03:49:01.383Z,9.24
2019-02-22T03:50:01.350Z,9.24
2019-02-22T03:51:01.359Z,9.18
2019-02-22T03:52:01.361Z,9.20
2019-02-22T03:53:01.368Z,9.16
2019-02-22T03:54:01.352Z,9.16
2019-02-22T03:55:01.338Z,9.18
2019-02-22T03:56:01.324Z,9.18
2019-02-22T03:57:01.304Z,9.18
2019-02-22T03:58:01.285Z,9.12
2019-02-22T03:59:01.250Z,9.20
2019-02-22T04:00:01.266Z,9.21
2019-02-22T04:01:01.272Z,9.20
2019-02-22T04:02:01.221Z,9.20
2019-02-22T04:03:01.246Z,9.18
2019-02-22T04:04:01.196Z,9.12
2019-02-22T04:05:01.218Z,9.20
2019-02-22T04:06:01.199Z,9.12
2019-02-22T04:07:01.190Z,9.16
2019-02-22T04:08:01.194Z,9.16
2019-02-22T04:09:01.154Z,9.15
2019-02-22T04:10:01.286Z,9.16
2019-02-22T04:11:01.123Z,9.12
2019-02-22T04:12:01.118Z,9.16
2019-02-22T04:13:01.099Z,9.16
2019-02-22T04:14:01.086Z,9.21
2019-02-22T04:15:01.110Z,9.16
2019-02-22T04:16:01.077Z,9.20
2019-02-22T04:17:01.054Z,9.18
2019-02-22T04:18:01.073Z,9.24
2019-02-22T04:19:01.114Z,9.15
2019-02-22T04:20:01.044Z,9.16
2019-02-22T04:21:01.023Z,9.21
2019-02-22T04:22:01.040Z,9.18
2019-02-22T04:23:01.001Z,9.20
2019-02-22T04:24:00.993Z,9.06
2019-02-22T04:25:01.017Z,9.20
2019-02-22T04:26:00.974Z,9.21
2019-02-22T04:27:00.969Z,9.18
2019-02-22T04:28:00.990Z,9.16
2019-02-22T04:29:00.939Z,9.16
2019-02-22T04:30:00.949Z,9.09
2019-02-22T04:31:00.906Z,9.15
2019-02-22T04:32:00.949Z,9.21
2019-02-22T04:33:00.905Z,9.20
2019-02-22T04:34:00.906Z,9.13
2019-02-22T04:35:00.917Z,9.15
2019-02-22T04:36:00.867Z,9.27
2019-02-22T04:37:00.873Z,9.16
2019-02-22T04:38:00.845Z,9.18
2019-02-22T04:39:00.817Z,9.06
2019-02-22T04:40:00.837Z,9.06
2019-02-22T04:41:00.844Z,9.13
2019-02-22T04:42:00.795Z,9.12
2019-02-22T04:43:00.784Z,9.10
2019-02-22T04:44:00.795Z,9.20
2019-02-22T04:45:00.784Z,9.13
2019-02-22T04:46:00.755Z,9.09
2019-02-22T04:47:00.745Z,9.05
2019-02-22T04:48:00.751Z,9.10
2019-02-22T04:49:00.708Z,9.18
2019-02-22T04:50:00.741Z,9.12
2019-02-22T04:51:00.703Z,9.06
2019-02-22T04:52:00.686Z,9.12
2019-02-22T04:53:00.694Z,9.20
2019-02-22T04:54:00.656Z,9.09
2019-02-22T04:55:00.669Z,9.16
2019-02-22T04:56:00.698Z,9.09
2019-02-22T04:57:00.633Z,9.15
2019-02-22T04:58:00.631Z,9.20
2019-02-22T04:59:00.628Z,9.21
2019-02-22T05:00:00.606Z,9.10
2019-02-22T05:01:00.621Z,9.06
2019-02-22T05:02:00.569Z,9.20
2019-02-22T05:03:00.573Z,9.04
2019-02-22T05:04:00.561Z,9.16
2019-02-22T05:05:00.562Z,9.18
2019-02-22T05:06:01.074Z,9.09
2019-02-22T05:07:00.531Z,9.13
2019-02-22T05:08:00.556Z,9.05
2019-02-22T05:09:00.495Z,9.10
2019-02-22T05:10:00.532Z,9.05
2019-02-22T05:11:01.161Z,9.06
2019-02-22T05:12:10.334Z,9.10
2019-02-22T05:13:01.469Z,8.99
2019-02-22T05:14:00.449Z,9.12
2019-02-22T05:15:11.999Z,9.06
2019-02-22T05:16:01.482Z,9.10
2019-02-22T05:17:00.434Z,9.02
2019-02-22T05:18:00.417Z,9.13
2019-02-22T05:19:00.388Z,9.12
2019-02-22T05:20:00.375Z,9.02
2019-02-22T05:21:00.366Z,8.97
2019-02-22T05:22:00.527Z,9.05
2019-02-22T05:23:03.714Z,9.10
2019-02-22T05:24:01.334Z,9.13
2019-02-22T05:25:00.552Z,9.15
2019-02-22T05:26:00.311Z,9.13
2019-02-22T05:27:00.341Z,9.16
2019-02-22T05:28:00.306Z,9.09
2019-02-22T05:29:00.292Z,9.12
2019-02-22T05:30:00.408Z,9.12
2019-02-22T05:31:00.303Z,9.13
2019-02-22T05:32:00.283Z,9.10
2019-02-22T05:33:00.234Z,8.99
2019-02-22T05:34:00.247Z,9.13
2019-02-22T05:35:00.370Z,9.01
2019-02-22T05:36:00.257Z,9.09
2019-02-22T05:37:00.208Z,9.05
2019-02-22T05:38:00.182Z,9.15
2019-02-22T05:39:00.211Z,9.06
2019-02-22T05:40:00.504Z,9.10
2019-02-22T05:41:00.203Z,9.09
2019-02-22T05:42:00.225Z,9.12
2019-02-22T05:43:00.143Z,9.10
2019-02-22T05:44:00.117Z,9.02
2019-02-22T05:45:00.406Z,9.12
2019-02-22T05:46:00.096Z,9.05
2019-02-22T05:47:00.770Z,9.02
2019-02-22T05:48:00.074Z,9.10
2019-02-22T05:49:00.095Z,9.01
2019-02-22T05:50:00.178Z,9.09
2019-02-22T05:51:00.075Z,9.09
2019-02-22T05:52:00.075Z,9.12
2019-02-22T05:53:00.025Z,9.10
2019-02-22T05:54:00.012Z,9.09
2019-02-22T05:55:00.001Z,9.09
2019-02-22T05:56:00.104Z,8.99
2019-02-22T05:57:00.181Z,9.10
2019-02-22T05:58:00.081Z,9.13
2019-02-22T05:59:00.096Z,9.05
2019-02-22T06:00:00.321Z,9.10
2019-02-22T06:01:00.024Z,9.10
2019-02-22T06:02:00.077Z,9.10
2019-02-22T06:03:00.025Z,9.05
2019-02-22T06:04:00.003Z,9.09
2019-02-22T06:04:59.999Z,9.13
2019-02-22T06:06:00.015Z,9.09
2019-02-22T06:07:00.072Z,9.02
2019-02-22T06:07:59.998Z,9.10
2019-02-22T06:09:00.012Z,9.09
2019-02-22T06:09:59.884Z,9.06
2019-02-22T06:10:59.868Z,9.05
2019-02-22T06:11:59.892Z,9.09
2019-02-22T06:13:00.046Z,8.97
2019-02-22T06:13:59.852Z,9.01
2019-02-22T06:14:59.838Z,9.13
2019-02-22T06:15:59.808Z,9.09
2019-02-22T06:16:59.894Z,9.05
2019-02-22T06:17:59.818Z,9.13
2019-02-22T06:18:59.818Z,8.97
2019-02-22T06:19:59.812Z,9.05
2019-02-22T06:20:59.869Z,9.02
2019-02-22T06:21:59.863Z,8.96
2019-02-22T06:22:59.759Z,8.99
2019-02-22T06:24:02.540Z,8.99
2019-02-22T06:24:59.702Z,8.94
2019-02-22T06:25:59.723Z,9.06
2019-02-22T06:26:59.767Z,8.93
2019-02-22T06:27:59.816Z,9.02
2019-02-22T06:29:00.012Z,9.04
2019-02-22T06:29:59.740Z,9.06
2019-02-22T06:30:59.742Z,8.94
2019-02-22T06:31:59.737Z,8.97
2019-02-22T06:32:59.721Z,9.02
2019-02-22T06:33:59.664Z,9.02
2019-02-22T06:34:59.678Z,8.99
2019-02-22T06:35:59.646Z,8.94
2019-02-22T06:37:02.106Z,8.99
2019-02-22T06:37:59.655Z,8.93
2019-02-22T06:38:59.867Z,9.02
2019-02-22T06:39:59.612Z,9.05
2019-02-22T06:40:59.601Z,9.04
2019-02-22T06:41:59.707Z,9.04
2019-02-22T06:42:59.641Z,8.96
2019-02-22T06:43:59.587Z,9.06
2019-02-22T06:44:59.633Z,8.96
2019-02-22T06:45:59.551Z,9.01
2019-02-22T06:46:59.539Z,8.97
2019-02-22T06:47:59.479Z,8.87
2019-02-22T06:48:59.501Z,8.96
2019-02-22T06:49:59.528Z,9.05
2019-02-22T06:50:59.447Z,9.06
2019-02-22T06:51:59.475Z,8.96
2019-02-22T06:52:59.436Z,8.99
2019-02-22T06:53:59.441Z,9.01
2019-02-22T06:54:59.512Z,9.06
2019-02-22T06:55:59.459Z,9.04
2019-02-22T06:56:59.568Z,9.01
2019-02-22T06:57:59.388Z,9.04
2019-02-22T06:58:59.362Z,9.02
2019-02-22T06:59:59.391Z,9.04
2019-02-22T07:00:59.317Z,9.01
2019-02-22T07:01:59.386Z,9.04
2019-02-22T07:02:59.301Z,9.10
2019-02-22T07:03:59.278Z,8.94
2019-02-22T07:05:00.317Z,8.96
2019-02-22T07:05:59.351Z,8.99
2019-02-22T07:06:59.370Z,9.01
2019-02-22T07:07:59.296Z,9.04
2019-02-22T07:08:59.249Z,9.09
2019-02-22T07:09:59.328Z,9.04
2019-02-22T07:10:59.318Z,9.01
2019-02-22T07:11:59.234Z,9.12
2019-02-22T07:12:59.270Z,9.13
2019-02-22T07:13:59.273Z,9.01
2019-02-22T07:14:59.172Z,9.10
2019-02-22T07:15:59.299Z,9.06
2019-02-22T07:16:59.244Z,9.04
2019-02-22T07:17:59.253Z,9.01
2019-02-22T07:18:59.217Z,9.02
2019-02-22T07:19:59.139Z,9.05
2019-02-22T07:20:59.245Z,9.04
2019-02-22T07:21:59.117Z,9.01
2019-02-22T07:22:59.117Z,9.05
2019-02-22T07:23:59.191Z,9.06
2019-02-22T07:24:59.107Z,8.94
2019-02-22T07:25:59.075Z,9.02
2019-02-22T07:26:59.120Z,9.02
2019-02-22T07:27:59.141Z,9.02
2019-02-22T07:28:59.062Z,9.05
2019-02-22T07:29:59.089Z,9.13
2019-02-22T07:30:59.065Z,9.10
2019-02-22T07:32:05.917Z,9.12
2019-02-22T07:32:59.987Z,9.12
2019-02-22T07:33:59.121Z,9.09
2019-02-22T07:34:59.115Z,9.09
2019-02-22T07:35:59.044Z,9.09
2019-02-22T07:36:59.407Z,9.05
2019-02-22T07:37:58.968Z,9.09
2019-02-22T07:38:58.948Z,9.10
2019-02-22T07:39:59.008Z,9.10
2019-02-22T07:40:59.070Z,9.15
2019-02-22T07:41:58.999Z,9.13
2019-02-22T07:43:07.752Z,9.04
2019-02-22T07:44:00.186Z,9.10
2019-02-22T07:44:58.996Z,9.15
2019-02-22T07:45:59.149Z,9.10
2019-02-22T07:46:58.894Z,9.06
2019-02-22T07:47:59.073Z,9.12
2019-02-22T07:48:58.964Z,9.01
2019-02-22T07:49:59.022Z,9.01
2019-02-22T07:50:58.977Z,9.09
2019-02-22T07:51:58.779Z,9.06
2019-02-22T07:52:58.891Z,9.12
2019-02-22T07:53:59.062Z,9.13
2019-02-22T07:54:58.825Z,9.16
2019-02-22T07:55:58.765Z,9.20
2019-02-22T07:56:59.033Z,9.10
2019-02-22T07:57:58.966Z,9.15
2019-02-22T07:58:58.845Z,9.20
2019-02-22T07:59:58.933Z,9.13
2019-02-22T08:00:58.846Z,9.16
2019-02-22T08:01:58.773Z,9.18
2019-02-22T08:02:58.811Z,9.16
2019-02-22T08:03:58.741Z,9.18
2019-02-22T08:04:58.705Z,9.13
2019-02-22T08:05:58.736Z,9.20
2019-02-22T08:06:58.739Z,9.21
2019-02-22T08:07:58.740Z,9.15
2019-02-22T08:08:58.660Z,9.12
2019-02-22T08:09:58.606Z,9.16
2019-02-22T08:10:58.568Z,9.15
2019-02-22T08:11:58.572Z,9.18
2019-02-22T08:12:58.711Z,9.15
2019-02-22T08:13:58.586Z,9.18
2019-02-22T08:14:58.776Z,9.25
2019-02-22T08:15:58.596Z,9.18
2019-02-22T08:16:58.661Z,9.16
2019-02-22T08:17:58.543Z,9.16
2019-02-22T08:19:01.758Z,9.21
2019-02-22T08:19:58.485Z,9.16
2019-02-22T08:20:58.537Z,9.15
2019-02-22T08:21:58.443Z,9.15
2019-02-22T08:22:58.558Z,9.18
2019-02-22T08:23:58.446Z,9.16
2019-02-22T08:24:58.442Z,9.16
2019-02-22T08:25:58.454Z,9.18
2019-02-22T08:26:58.526Z,9.12
2019-02-22T08:27:58.498Z,9.16
2019-02-22T08:28:58.522Z,9.18
2019-02-22T08:29:58.514Z,9.15
2019-02-22T08:30:58.462Z,9.16
2019-02-22T08:31:58.467Z,9.20
2019-02-22T08:32:58.504Z,9.15
2019-02-22T08:33:58.386Z,9.24
2019-02-22T08:34:58.532Z,9.18
2019-02-22T08:35:58.484Z,9.16
2019-02-22T08:36:58.349Z,9.18
2019-02-22T08:37:58.345Z,9.18
2019-02-22T08:38:58.380Z,9.21
2019-02-22T08:39:59.031Z,9.20
2019-02-22T08:40:58.298Z,9.20
2019-02-22T08:41:58.332Z,9.28
2019-02-22T08:42:58.241Z,9.21
2019-02-22T08:43:58.340Z,9.20
2019-02-22T08:44:58.276Z,9.24
2019-02-22T08:45:58.265Z,9.27
2019-02-22T08:46:58.202Z,9.21
2019-02-22T08:47:58.392Z,9.25
2019-02-22T08:48:58.212Z,9.25
2019-02-22T08:49:58.210Z,9.21
2019-02-22T08:50:58.164Z,9.30
2019-02-22T08:51:58.133Z,9.31
2019-02-22T08:52:58.229Z,9.32
2019-02-22T08:53:58.191Z,9.28
2019-02-22T08:54:58.109Z,9.30
2019-02-22T08:55:59.734Z,9.27
2019-02-22T08:56:58.148Z,9.25
2019-02-22T08:57:58.141Z,9.38
2019-02-22T08:58:58.241Z,9.30
2019-02-22T08:59:58.160Z,9.30
2019-02-22T09:00:58.266Z,9.27
2019-02-22T09:01:58.154Z,9.34
2019-02-22T09:02:58.110Z,9.40
2019-02-22T09:03:58.035Z,9.32
2019-02-22T09:04:58.119Z,9.38
2019-02-22T09:05:59.801Z,9.39
2019-02-22T09:06:58.023Z,9.32
2019-02-22T09:07:58.024Z,9.35
2019-02-22T09:08:58.015Z,9.42
2019-02-22T09:09:57.932Z,9.35
2019-02-22T09:11:00.827Z,9.43
2019-02-22T09:11:57.985Z,9.40
2019-02-22T09:12:58.043Z,9.39
2019-02-22T09:13:58.042Z,9.39
2019-02-22T09:14:58.023Z,9.38
2019-02-22T09:15:58.077Z,9.40
2019-02-22T09:16:57.857Z,9.43
2019-02-22T09:17:57.915Z,9.48
2019-02-22T09:18:57.921Z,9.48
2019-02-22T09:19:58.003Z,9.46
2019-02-22T09:20:57.912Z,9.52
2019-02-22T09:21:57.853Z,9.49
2019-02-22T09:22:57.830Z,9.53
2019-02-22T09:23:57.786Z,9.52
2019-02-22T09:24:57.812Z,9.50
2019-02-22T09:25:57.935Z,9.58
2019-02-22T09:26:59.678Z,9.57
2019-02-22T09:27:57.853Z,9.57
2019-02-22T09:28:57.744Z,9.53
2019-02-22T09:29:59.089Z,9.49
2019-02-22T09:30:57.704Z,9.50
2019-02-22T09:31:57.801Z,9.58
2019-02-22T09:32:57.721Z,9.66
2019-02-22T09:33:57.757Z,9.57
2019-02-22T09:34:57.843Z,9.66
2019-02-22T09:35:57.730Z,9.60
2019-02-22T09:36:57.838Z,9.61
2019-02-22T09:37:57.734Z,9.64
2019-02-22T09:38:57.864Z,9.66
2019-02-22T09:39:57.638Z,9.64
2019-02-22T09:40:57.628Z,9.61
2019-02-22T09:41:57.700Z,9.67
2019-02-22T09:42:57.746Z,9.68
2019-02-22T09:43:57.756Z,9.78
2019-02-22T09:44:57.671Z,9.73
2019-02-22T09:45:57.623Z,9.73
2019-02-22T09:46:57.720Z,9.73
2019-02-22T09:47:57.560Z,9.73
2019-02-22T09:48:57.537Z,9.78
2019-02-22T09:49:57.576Z,9.76
2019-02-22T09:50:57.570Z,9.76
2019-02-22T09:51:57.492Z,9.79
2019-02-22T09:53:00.417Z,9.73
2019-02-22T09:53:57.559Z,9.78
2019-02-22T09:54:57.824Z,9.78
2019-02-22T09:55:57.574Z,9.88
2019-02-22T09:56:57.546Z,9.79
2019-02-22T09:57:57.512Z,9.82
2019-02-22T09:58:57.521Z,9.88
2019-02-22T09:59:57.540Z,9.91
2019-02-22T10:00:57.403Z,9.91
2019-02-22T10:01:57.461Z,9.79
2019-02-22T10:02:57.423Z,9.89
2019-02-22T10:03:57.381Z,9.94
2019-02-22T10:04:57.457Z,9.89
2019-02-22T10:05:57.370Z,9.91
2019-02-22T10:06:57.508Z,9.99
2019-02-22T10:07:57.496Z,9.94
2019-02-22T10:08:57.389Z,9.94
2019-02-22T10:09:57.377Z,9.97
2019-02-22T10:10:57.356Z,9.94
2019-02-22T10:11:57.337Z,10.00
2019-02-22T10:12:57.443Z,9.96
2019-02-22T10:14:06.357Z,10.01
2019-02-22T10:14:58.248Z,10.07
2019-02-22T10:15:57.335Z,10.09
2019-02-22T10:16:57.241Z,10.14
2019-02-22T10:17:57.330Z,10.09
2019-02-22T10:18:57.254Z,10.14
2019-02-22T10:19:57.286Z,10.12
2019-02-22T10:20:57.247Z,10.15
2019-02-22T10:21:57.750Z,10.17
2019-02-22T10:22:57.211Z,10.15
2019-02-22T10:23:57.224Z,10.22
2019-02-22T10:24:57.184Z,10.21
2019-02-22T10:25:57.231Z,10.30
2019-02-22T10:26:57.204Z,10.33
2019-02-22T10:27:57.272Z,10.28
2019-02-22T10:28:57.230Z,10.30
2019-02-22T10:29:57.097Z,10.30
2019-02-22T10:30:57.187Z,10.32
2019-02-22T10:31:57.103Z,10.24
2019-02-22T10:32:57.050Z,10.30
2019-02-22T10:33:57.057Z,10.28
2019-02-22T10:34:57.054Z,10.40
2019-02-22T10:35:57.120Z,10.36
2019-02-22T10:36:57.209Z,10.37
2019-02-22T10:37:57.024Z,10.37
2019-02-22T10:38:57.232Z,10.52
2019-02-22T10:39:56.969Z,10.55
2019-02-22T10:40:56.956Z,10.52
2019-02-22T10:41:56.952Z,10.52
2019-02-22T10:42:56.925Z,10.55
2019-02-22T10:43:57.062Z,10.56
2019-02-22T10:44:56.994Z,10.63
2019-02-22T10:45:56.981Z,10.59
2019-02-22T10:46:56.968Z,10.60
2019-02-22T10:47:56.951Z,10.66
2019-02-22T10:48:57.007Z,10.62
2019-02-22T10:49:56.950Z,10.66
2019-02-22T10:50:59.295Z,10.62
2019-02-22T10:51:56.899Z,10.59
2019-02-22T10:53:02.229Z,10.59
2019-02-22T10:53:57.948Z,10.65
2019-02-22T10:54:57.833Z,10.59
2019-02-22T10:55:56.908Z,10.58
2019-02-22T10:56:56.931Z,10.56
2019-02-22T10:57:56.880Z,10.68
2019-02-22T10:58:57.089Z,10.65
2019-02-22T10:59:56.934Z,10.66
2019-02-22T11:00:56.862Z,10.76
2019-02-22T11:01:56.789Z,10.78
2019-02-22T11:02:56.810Z,10.77
2019-02-22T11:03:56.729Z,10.71
2019-02-22T11:04:56.759Z,10.80
2019-02-22T11:05:56.728Z,10.74
2019-02-22T11:06:56.681Z,10.78
2019-02-22T11:07:56.683Z,10.77
2019-02-22T11:08:56.748Z,10.80
2019-02-22T11:09:56.751Z,10.88
2019-02-22T11:10:56.725Z,10.83
2019-02-22T11:11:56.724Z,10.92
2019-02-22T11:12:56.629Z,10.91
2019-02-22T11:13:56.596Z,10.96
2019-02-22T11:14:56.707Z,10.92
2019-02-22T11:15:56.666Z,10.96
2019-02-22T11:16:56.614Z,11.07
2019-02-22T11:17:56.614Z,11.13
2019-02-22T11:18:56.622Z,11.11
2019-02-22T11:19:56.632Z,11.20
2019-02-22T11:20:56.545Z,11.16
2019-02-22T11:21:56.517Z,11.24
2019-02-22T11:22:56.525Z,11.20
2019-02-22T11:23:56.483Z,11.27
2019-02-22T11:24:56.515Z,11.31
2019-02-22T11:25:56.524Z,11.38
2019-02-22T11:26:56.520Z,11.39
2019-02-22T11:27:56.458Z,11.50
2019-02-22T11:28:56.494Z,11.52
2019-02-22T11:29:56.453Z,11.53
2019-02-22T11:30:56.438Z,11.57
2019-02-22T11:31:56.505Z,11.52
2019-02-22T11:32:56.392Z,11.47
2019-02-22T11:33:56.438Z,11.46
2019-02-22T11:34:56.375Z,11.38
2019-02-22T11:35:56.398Z,11.39
2019-02-22T11:36:56.413Z,11.29
2019-02-22T11:37:56.369Z,11.25
2019-02-22T11:38:56.549Z,11.25
2019-02-22T11:39:56.567Z,11.20
2019-02-22T11:40:56.404Z,11.21
2019-02-22T11:41:56.338Z,11.17
2019-02-22T11:42:56.320Z,11.19
2019-02-22T11:43:56.279Z,11.24
2019-02-22T11:44:56.352Z,11.21
2019-02-22T11:45:56.277Z,11.17
2019-02-22T11:46:56.300Z,11.25
2019-02-22T11:47:56.227Z,11.19
2019-02-22T11:48:56.247Z,11.16
2019-02-22T11:49:56.271Z,11.20
2019-02-22T11:50:56.337Z,11.20
2019-02-22T11:51:56.234Z,11.13
2019-02-22T11:52:56.416Z,11.17
2019-02-22T11:53:56.185Z,11.19
2019-02-22T11:54:56.193Z,11.19
2019-02-22T11:55:56.164Z,11.17
2019-02-22T11:56:56.403Z,11.16
2019-02-22T11:57:56.163Z,11.17
2019-02-22T11:58:56.244Z,11.16
2019-02-22T11:59:56.141Z,11.21
2019-02-22T12:00:56.117Z,11.24
2019-02-22T12:01:56.177Z,11.20
2019-02-22T12:02:56.179Z,11.21
2019-02-22T12:03:56.110Z,11.28
2019-02-22T12:04:56.060Z,11.27
2019-02-22T12:05:56.073Z,11.28
2019-02-22T12:06:56.148Z,11.29
2019-02-22T12:07:56.069Z,11.36
2019-02-22T12:08:56.128Z,11.35
2019-02-22T12:09:56.076Z,11.36
2019-02-22T12:10:56.065Z,11.43
2019-02-22T12:11:56.043Z,11.47
2019-02-22T12:12:56.095Z,11.44
2019-02-22T12:13:56.049Z,11.54
2019-02-22T12:14:56.040Z,11.43
2019-02-22T12:15:56.015Z,11.59
2019-02-22T12:16:56.044Z,11.64
2019-02-22T12:17:55.992Z,11.74
2019-02-22T12:18:56.002Z,11.71
2019-02-22T12:19:55.963Z,11.74
2019-02-22T12:20:55.910Z,11.72
2019-02-22T12:21:55.883Z,11.83
2019-02-22T12:22:55.972Z,11.83
2019-02-22T12:23:55.851Z,11.90
2019-02-22T12:24:55.841Z,11.86
2019-02-22T12:25:55.887Z,11.99
2019-02-22T12:26:55.974Z,11.94
2019-02-22T12:27:56.132Z,11.94
2019-02-22T12:28:55.869Z,11.96
2019-02-22T12:29:55.838Z,11.99
2019-02-22T12:30:55.863Z,11.93
2019-02-22T12:31:55.858Z,11.83
2019-02-22T12:32:55.875Z,11.83
2019-02-22T12:33:55.747Z,11.90
2019-02-22T12:34:55.768Z,11.83
2019-02-22T12:35:55.757Z,11.86
2019-02-22T12:36:55.724Z,11.86
2019-02-22T12:37:55.736Z,11.87
2019-02-22T12:38:55.702Z,11.83
2019-02-22T12:39:55.809Z,11.80
2019-02-22T12:40:55.676Z,11.83
2019-02-22T12:41:55.726Z,11.85
2019-02-22T12:42:55.655Z,11.85
2019-02-22T12:43:55.686Z,11.85
2019-02-22T12:45:02.935Z,11.86
2019-02-22T12:45:56.689Z,11.80
2019-02-22T12:46:55.634Z,11.85
2019-02-22T12:47:55.624Z,11.85
2019-02-22T12:48:55.715Z,11.80
2019-02-22T12:49:55.669Z,11.96
2019-02-22T12:50:55.530Z,11.93
2019-02-22T12:51:55.521Z,11.94
2019-02-22T12:52:55.511Z,11.94
2019-02-22T12:53:55.527Z,12.09
2019-02-22T12:54:55.482Z,12.08
2019-02-22T12:55:55.535Z,12.09
2019-02-22T12:56:57.920Z,12.08
2019-02-22T12:57:55.470Z,12.08
2019-02-22T12:58:55.525Z,12.05
2019-02-22T12:59:55.443Z,12.09
2019-02-22T13:00:55.448Z,12.04
2019-02-22T13:01:55.444Z,12.08
2019-02-22T13:03:01.932Z,12.05
2019-02-22T13:03:56.415Z,12.16
2019-02-22T13:04:55.381Z,12.19
2019-02-22T13:05:55.436Z,12.27
2019-02-22T13:06:55.355Z,12.41
2019-02-22T13:07:55.350Z,12.37
2019-02-22T13:08:55.346Z,12.31
2019-02-22T13:09:55.349Z,12.34
2019-02-22T13:10:55.327Z,12.37
2019-02-22T13:11:55.320Z,12.38